createdAt,value
2023-02-28T00:02:11.634Z,57.25
2023-02-28T00:05:18.149Z,28.80
2023-02-28T00:08:22.503Z,26.92
2023-02-28T00:11:26.985Z,30.67
2023-02-28T00:14:32.822Z,45.33
2023-02-28T00:17:37.720Z,37.83
2023-02-28T00:20:42.222Z,39.80
2023-02-28T00:23:46.606Z,34.35
2023-02-28T00:26:50.877Z,40.63
2023-02-28T00:29:56.040Z,26.10
2023-02-28T00:33:01.182Z,31.37
2023-02-28T00:36:08.236Z,26.00
2023-02-28T00:39:14.319Z,19.42
2023-02-28T00:42:18.609Z,21.97
2023-02-28T00:45:25.396Z,22.35
2023-02-28T00:48:30.297Z,102.68
2023-02-28T00:51:34.628Z,29.80
2023-02-28T00:54:38.875Z,23.73
2023-02-28T00:57:45.578Z,26.58
2023-02-28T01:00:50.706Z,26.92
2023-02-28T01:03:55.002Z,28.08
2023-02-28T01:06:58.908Z,21.27
2023-02-28T01:10:03.672Z,25.35
2023-02-28T01:13:08.008Z,22.67
2023-02-28T01:16:15.340Z,34.40
2023-02-28T01:19:19.639Z,28.70
2023-02-28T01:22:23.886Z,26.75
2023-02-28T01:25:28.191Z,26.30
2023-02-28T01:28:32.126Z,34.88
2023-02-28T01:31:38.543Z,28.45
2023-02-28T01:34:45.692Z,39.40
2023-02-28T01:37:49.937Z,34.58
2023-02-28T01:40:54.168Z,32.63
2023-02-28T01:44:07.324Z,29.48
2023-02-28T01:47:11.269Z,37.28
2023-02-28T01:50:20.414Z,42.95
2023-02-28T01:53:32.233Z,47.28
2023-02-28T01:56:38.603Z,40.83
2023-02-28T01:59:52.813Z,44.40
2023-02-28T02:03:01.681Z,37.47
2023-02-28T02:06:05.775Z,37.75
2023-02-28T02:09:09.971Z,40.75
2023-02-28T02:12:32.632Z,48.70
2023-02-28T02:15:46.337Z,39.88
2023-02-28T02:19:00.661Z,45.53
2023-02-28T02:22:28.526Z,49.70
2023-02-28T02:25:51.740Z,41.13
2023-02-28T02:29:06.076Z,41.45
2023-02-28T02:33:01.300Z,41.72
2023-02-28T02:36:32.637Z,63.65
2023-02-28T02:39:55.250Z,68.75
2023-02-28T02:43:09.144Z,63.00
2023-02-28T02:46:33.130Z,66.82
2023-02-28T02:49:40.482Z,72.93
2023-02-28T02:52:50.564Z,64.47
2023-02-28T02:55:57.354Z,61.33
2023-02-28T02:59:08.198Z,48.03
2023-02-28T03:02:16.414Z,48.25
2023-02-28T03:05:28.704Z,53.53
2023-02-28T03:08:37.722Z,65.40
2023-02-28T03:11:44.070Z,87.03
2023-02-28T03:15:21.953Z,50.95
2023-02-28T03:19:00.074Z,78.78
2023-02-28T03:22:13.785Z,41.45
2023-02-28T03:25:54.622Z,49.60
2023-02-28T03:29:14.762Z,45.55
2023-02-28T03:32:41.411Z,51.97
2023-02-28T03:35:55.166Z,55.97
2023-02-28T03:39:09.253Z,69.55
2023-02-28T03:42:22.637Z,64.45
2023-02-28T03:45:32.027Z,76.63
2023-02-28T03:49:02.598Z,52.50
2023-02-28T03:52:09.570Z,363.30
2023-02-28T03:55:16.916Z,176.82
2023-02-28T03:58:41.179Z,87.40
2023-02-28T04:01:48.574Z,77.43
2023-02-28T04:04:52.956Z,70.80
2023-02-28T04:08:06.588Z,85.15
2023-02-28T04:11:32.643Z,87.70
2023-02-28T04:14:37.103Z,73.05
2023-02-28T04:17:40.997Z,80.85
2023-02-28T04:20:45.094Z,73.80
2023-02-28T04:23:48.992Z,80.90
2023-02-28T04:26:55.614Z,132.68
2023-02-28T04:29:59.881Z,106.15
2023-02-28T04:33:03.858Z,65.43
2023-02-28T04:36:11.122Z,77.72
2023-02-28T04:39:15.763Z,110.10
2023-02-28T04:42:20.034Z,74.40
2023-02-28T04:45:24.912Z,63.13
2023-02-28T04:48:34.701Z,70.25
2023-02-28T04:51:39.650Z,85.75
2023-02-28T04:54:43.720Z,78.63
2023-02-28T04:57:47.640Z,86.10
2023-02-28T05:00:55.412Z,87.68
2023-02-28T05:04:02.223Z,79.95
2023-02-28T05:07:06.514Z,70.53
2023-02-28T05:10:11.784Z,85.22
2023-02-28T05:13:16.385Z,79.88
2023-02-28T05:16:21.889Z,90.55
2023-02-28T05:19:26.477Z,79.90
2023-02-28T05:22:30.785Z,75.43
2023-02-28T05:25:35.483Z,83.43
2023-02-28T05:28:40.055Z,94.43
2023-02-28T05:31:44.385Z,83.88
2023-02-28T05:34:48.790Z,98.60
2023-02-28T05:37:53.546Z,185.40
2023-02-28T05:40:58.129Z,129.68
2023-02-28T05:44:02.502Z,92.30
2023-02-28T05:47:06.364Z,123.18
2023-02-28T05:50:12.386Z,112.65
2023-02-28T05:53:16.155Z,119.13
2023-02-28T05:56:20.451Z,78.25
2023-02-28T05:59:24.759Z,76.53
2023-02-28T06:02:30.117Z,94.47
2023-02-28T06:05:34.928Z,89.07
2023-02-28T06:08:39.794Z,93.72
2023-02-28T06:11:44.584Z,133.00
2023-02-28T06:14:48.873Z,83.03
2023-02-28T06:17:54.149Z,94.63
2023-02-28T06:20:58.613Z,95.40
2023-02-28T06:24:03.354Z,80.93
2023-02-28T06:27:07.746Z,84.93
2023-02-28T06:30:13.604Z,92.93
2023-02-28T06:33:18.486Z,155.00
2023-02-28T06:36:22.835Z,102.57
2023-02-28T06:39:27.128Z,135.40
2023-02-28T06:42:32.532Z,125.65
2023-02-28T06:45:37.720Z,104.63
2023-02-28T06:48:42.422Z,103.80
2023-02-28T06:51:47.028Z,103.22
2023-02-28T06:55:01.532Z,101.15
2023-02-28T06:58:16.277Z,146.23
2023-02-28T07:01:21.173Z,101.85
2023-02-28T07:04:25.722Z,104.43
2023-02-28T07:07:30.155Z,107.22
2023-02-28T07:10:35.609Z,104.68
2023-02-28T07:13:39.470Z,123.05
2023-02-28T07:16:43.420Z,193.65
2023-02-28T07:19:48.103Z,270.65
2023-02-28T07:22:58.056Z,181.20
2023-02-28T07:26:02.723Z,164.05
2023-02-28T07:29:07.004Z,102.30
2023-02-28T07:32:11.412Z,112.15
2023-02-28T07:35:17.159Z,111.07
2023-02-28T07:38:21.443Z,95.20
2023-02-28T07:41:27.664Z,106.43
2023-02-28T07:44:31.997Z,154.73
2023-02-28T07:47:36.529Z,104.25
2023-02-28T07:50:40.441Z,111.22
2023-02-28T07:53:44.461Z,84.72
2023-02-28T07:56:50.171Z,154.75
2023-02-28T07:59:55.148Z,87.53
2023-02-28T08:02:59.878Z,80.10
2023-02-28T08:06:08.570Z,84.80
2023-02-28T08:09:13.390Z,85.25
2023-02-28T08:12:18.040Z,75.57
2023-02-28T08:15:22.278Z,73.97
2023-02-28T08:18:26.826Z,77.60
2023-02-28T08:21:31.528Z,81.35
2023-02-28T08:24:36.410Z,79.10
2023-02-28T08:27:40.601Z,76.10
2023-02-28T08:30:44.585Z,87.32
2023-02-28T08:33:51.655Z,80.53
2023-02-28T08:36:55.686Z,72.97
2023-02-28T08:39:59.426Z,71.47
2023-02-28T08:43:03.742Z,67.88
2023-02-28T08:46:09.260Z,52.45
2023-02-28T08:49:13.650Z,51.13
2023-02-28T08:52:18.842Z,58.72
2023-02-28T08:55:23.456Z,52.97
2023-02-28T08:58:28.500Z,62.90
2023-02-28T09:01:34.693Z,57.75
2023-02-28T09:04:39.082Z,64.93
2023-02-28T09:07:44.155Z,50.13
2023-02-28T09:10:48.986Z,29.30
2023-02-28T09:13:53.264Z,45.40
2023-02-28T09:16:57.691Z,45.40
2023-02-28T09:20:02.139Z,27.92
2023-02-28T09:23:06.872Z,23.55
2023-02-28T09:26:16.753Z,30.67
2023-02-28T09:29:22.234Z,26.15
2023-02-28T09:35:32.483Z,25.20
2023-02-28T09:38:37.294Z,25.48
2023-02-28T09:41:52.413Z,24.85
2023-02-28T09:44:58.784Z,20.30
2023-02-28T09:48:09.392Z,17.30
2023-02-28T09:51:50.776Z,15.05
2023-02-28T09:54:54.781Z,20.45
2023-02-28T09:58:01.648Z,15.10
2023-02-28T10:01:20.084Z,22.02
2023-02-28T10:04:39.523Z,14.98
2023-02-28T10:07:56.963Z,17.40
2023-02-28T10:11:06.204Z,15.13
2023-02-28T10:14:23.608Z,15.38
2023-02-28T10:17:54.900Z,13.57
2023-02-28T10:21:07.479Z,14.25
2023-02-28T10:24:32.278Z,13.88
2023-02-28T10:27:37.163Z,14.38
2023-02-28T10:30:48.781Z,12.03
2023-02-28T10:33:53.161Z,12.82
2023-02-28T10:36:58.300Z,11.85
2023-02-28T10:40:02.884Z,13.52
2023-02-28T10:43:20.933Z,11.35
2023-02-28T10:46:29.772Z,10.27
2023-02-28T10:49:36.679Z,12.80
2023-02-28T10:52:44.536Z,8.98
2023-02-28T10:56:10.580Z,8.18
2023-02-28T10:59:29.412Z,8.70
2023-02-28T11:02:44.710Z,10.18
2023-02-28T11:05:50.690Z,8.53
2023-02-28T11:09:02.111Z,8.05
2023-02-28T11:12:09.540Z,8.93
2023-02-28T11:16:12.380Z,8.98
2023-02-28T11:19:42.127Z,8.02
2023-02-28T11:22:48.162Z,7.88
2023-02-28T11:25:58.859Z,7.60
2023-02-28T11:29:23.726Z,8.57
2023-02-28T11:32:30.717Z,8.07
2023-02-28T11:35:38.796Z,8.65
2023-02-28T11:46:29.101Z,10.52
2023-02-28T11:49:52.208Z,45.67
2023-02-28T11:53:03.240Z,9.10
2023-02-28T11:56:39.009Z,34.22
2023-02-28T12:00:02.979Z,33.00
2023-02-28T12:03:29.795Z,10.05
2023-02-28T12:07:11.182Z,9.18
2023-02-28T12:10:26.509Z,17.25
2023-02-28T12:13:50.551Z,26.17
2023-02-28T12:17:20.820Z,11.55
2023-02-28T12:20:31.731Z,20.70
2023-02-28T12:24:07.205Z,51.42
2023-02-28T12:27:16.916Z,84.97
2023-02-28T12:30:52.274Z,64.10
2023-02-28T12:34:04.117Z,72.00
2023-02-28T12:37:18.691Z,71.88
2023-02-28T12:40:31.305Z,32.58
2023-02-28T12:43:43.060Z,32.47
2023-02-28T12:46:54.908Z,54.80
2023-02-28T12:50:04.280Z,60.67
2023-02-28T12:53:24.945Z,52.97
2023-02-28T12:56:39.432Z,55.75
2023-02-28T13:00:01.947Z,46.20
2023-02-28T13:03:35.455Z,13.52
2023-02-28T13:07:04.048Z,12.25
2023-02-28T13:10:09.849Z,99.72
2023-02-28T13:16:23.573Z,7.10
2023-02-28T13:19:35.601Z,8.25
2023-02-28T13:22:48.993Z,8.27
2023-02-28T13:25:55.432Z,9.23
2023-02-28T13:29:06.550Z,6.45
2023-02-28T13:32:11.183Z,10.15
2023-02-28T13:35:17.088Z,7.85
2023-02-28T13:38:27.206Z,5.70
2023-02-28T13:41:31.360Z,17.80
2023-02-28T13:45:04.280Z,6.25
2023-02-28T13:48:26.826Z,3.65
2023-02-28T13:51:51.263Z,6.53
2023-02-28T13:55:37.895Z,5.85
2023-02-28T13:58:52.337Z,4.55
2023-02-28T14:02:02.438Z,4.90
2023-02-28T14:05:21.550Z,5.10
2023-02-28T14:08:25.953Z,7.05
2023-02-28T14:11:34.765Z,20.80
2023-02-28T14:14:39.007Z,5.10
2023-02-28T14:17:43.597Z,5.18
2023-02-28T14:20:51.210Z,6.05
2023-02-28T14:24:13.668Z,9.13
2023-02-28T14:27:39.287Z,5.97
2023-02-28T14:30:46.594Z,136.80
2023-02-28T14:34:21.463Z,7.07
2023-02-28T14:37:33.139Z,6.90
2023-02-28T14:40:40.613Z,51.53
2023-02-28T14:43:57.497Z,106.53
2023-02-28T14:47:10.695Z,19.05
2023-02-28T14:50:29.346Z,7.63
2023-02-28T14:53:39.406Z,4.90
2023-02-28T14:56:43.930Z,4.50
2023-02-28T14:59:48.249Z,6.65
2023-02-28T15:02:53.508Z,35.92
2023-02-28T15:06:00.246Z,16.50
2023-02-28T15:09:19.304Z,17.30
2023-02-28T15:16:01.875Z,11.30
2023-02-28T15:19:18.746Z,21.77
2023-02-28T15:25:43.677Z,6.45
2023-02-28T15:28:47.828Z,52.40
2023-02-28T15:31:58.416Z,8.13
2023-02-28T15:35:22.886Z,11.85
2023-02-28T15:38:29.236Z,12.43
2023-02-28T15:41:43.057Z,10.18
2023-02-28T15:44:47.987Z,12.77
2023-02-28T15:47:53.623Z,7.75
2023-02-28T15:51:19.114Z,10.70
2023-02-28T15:54:36.679Z,59.42
2023-02-28T15:57:42.523Z,88.78
2023-02-28T16:03:58.553Z,42.30
2023-02-28T16:07:05.571Z,28.67
2023-02-28T16:10:12.146Z,108.18
2023-02-28T16:13:17.774Z,39.45
2023-02-28T16:19:28.467Z,17.65
2023-02-28T16:22:32.673Z,10.38
2023-02-28T16:25:40.665Z,6.20
2023-02-28T16:28:46.026Z,8.35
2023-02-28T16:31:50.541Z,4.82
2023-02-28T16:34:54.946Z,13.88
2023-02-28T16:37:58.855Z,7.47
2023-02-28T16:41:03.341Z,38.00
2023-02-28T16:44:15.555Z,8.07
2023-02-28T16:47:20.293Z,5.55
2023-02-28T16:50:27.752Z,5.22
2023-02-28T16:53:31.654Z,8.68
2023-02-28T16:56:37.118Z,11.18
2023-02-28T16:59:42.044Z,15.30
2023-02-28T17:02:46.770Z,8.10
2023-02-28T17:05:51.200Z,7.78
2023-02-28T17:08:56.661Z,4.85
2023-02-28T17:12:01.337Z,5.75
2023-02-28T17:15:06.118Z,6.13
2023-02-28T17:18:22.985Z,5.53
2023-02-28T17:21:27.513Z,7.60
2023-02-28T17:24:31.865Z,6.60
2023-02-28T17:27:36.355Z,6.72
2023-02-28T17:30:42.491Z,4.90
2023-02-28T17:33:47.002Z,6.90
2023-02-28T17:36:54.028Z,6.65
2023-02-28T17:39:58.457Z,5.72
2023-02-28T17:43:02.831Z,6.45
2023-02-28T17:46:09.230Z,8.65
2023-02-28T17:49:13.698Z,7.90
2023-02-28T17:52:18.136Z,8.43
2023-02-28T17:55:22.547Z,8.57
2023-02-28T17:58:27.040Z,5.93
2023-02-28T18:01:31.494Z,14.48
2023-02-28T18:04:36.085Z,703.47
2023-02-28T18:07:41.230Z,737.90
2023-02-28T18:10:45.788Z,559.75
2023-02-28T18:13:52.817Z,470.90
2023-02-28T18:16:58.304Z,386.25
2023-02-28T18:20:02.874Z,457.40
2023-02-28T18:23:07.089Z,355.85
2023-02-28T18:26:11.761Z,225.68
2023-02-28T18:29:23.233Z,257.50
2023-02-28T18:32:28.935Z,189.70
2023-02-28T18:35:36.487Z,148.52
2023-02-28T18:38:41.434Z,91.30
2023-02-28T18:41:45.422Z,152.23
2023-02-28T18:44:49.157Z,108.22
2023-02-28T18:47:53.378Z,58.40
2023-02-28T18:50:58.497Z,44.38
2023-02-28T18:54:02.891Z,11.85
2023-02-28T18:57:07.333Z,9.18
2023-02-28T19:00:13.901Z,6.65
2023-02-28T19:03:18.293Z,9.48
2023-02-28T19:06:22.991Z,14.23
2023-02-28T19:09:27.348Z,16.45
2023-02-28T19:12:36.212Z,10.23
2023-02-28T19:15:40.779Z,7.32
2023-02-28T19:18:45.259Z,6.55
2023-02-28T19:21:48.959Z,5.55
2023-02-28T19:24:53.882Z,5.88
2023-02-28T19:27:58.614Z,8.95
2023-02-28T19:31:02.993Z,10.45
2023-02-28T19:34:07.326Z,11.48
2023-02-28T19:37:11.881Z,12.48
2023-02-28T19:40:16.514Z,9.52
2023-02-28T19:43:20.700Z,8.68
2023-02-28T19:46:24.964Z,10.65
2023-02-28T19:49:29.266Z,5.43
2023-02-28T19:52:33.971Z,6.47
2023-02-28T19:55:39.335Z,5.33
2023-02-28T19:58:43.774Z,6.65
2023-02-28T20:01:48.388Z,5.97
2023-02-28T20:04:52.895Z,4.35
2023-02-28T20:07:57.599Z,5.72
2023-02-28T20:11:16.495Z,4.28
2023-02-28T20:14:21.042Z,5.25
2023-02-28T20:17:25.853Z,5.30
2023-02-28T20:20:30.152Z,6.23
2023-02-28T20:23:34.458Z,7.80
2023-02-28T20:26:39.351Z,7.72
2023-02-28T20:29:43.548Z,8.50
2023-02-28T20:32:47.498Z,20.30
2023-02-28T20:35:53.572Z,18.75
2023-02-28T20:39:00.168Z,10.07
2023-02-28T20:42:04.815Z,10.52
2023-02-28T20:45:09.807Z,17.50
2023-02-28T20:48:14.164Z,15.20
2023-02-28T20:51:18.416Z,13.73
2023-02-28T20:54:23.007Z,15.00
2023-02-28T20:57:30.955Z,18.48
2023-02-28T21:00:35.524Z,28.42
2023-02-28T21:03:41.275Z,20.33
2023-02-28T21:06:47.052Z,26.98
2023-02-28T21:09:51.290Z,20.83
2023-02-28T21:12:58.451Z,19.77
2023-02-28T21:16:11.034Z,24.77
2023-02-28T21:19:15.703Z,22.67
2023-02-28T21:22:20.572Z,47.90
2023-02-28T21:25:24.770Z,31.02
2023-02-28T21:28:29.174Z,51.17
2023-02-28T21:31:35.033Z,33.10
2023-02-28T21:34:39.670Z,40.80
2023-02-28T21:37:44.958Z,48.27
2023-02-28T21:40:52.140Z,46.25
2023-02-28T21:43:57.787Z,33.80
2023-02-28T21:47:03.507Z,36.42
2023-02-28T21:50:08.469Z,46.33
2023-02-28T21:53:13.022Z,54.42
2023-02-28T21:56:28.446Z,59.95
2023-02-28T22:02:37.942Z,67.40
2023-02-28T22:05:42.004Z,79.05
2023-02-28T22:08:49.012Z,82.15
2023-02-28T22:11:53.816Z,100.60
2023-02-28T22:14:57.821Z,143.60
2023-02-28T22:18:01.829Z,140.43
2023-02-28T22:21:07.270Z,129.60
2023-02-28T22:24:12.427Z,142.95
2023-02-28T22:27:16.793Z,162.93
2023-02-28T22:30:21.183Z,148.32
2023-02-28T22:33:25.556Z,139.38
2023-02-28T22:36:31.199Z,161.48
2023-02-28T22:39:35.645Z,153.48
2023-02-28T22:42:40.278Z,156.98
2023-02-28T22:45:44.621Z,115.33
2023-02-28T22:48:49.745Z,121.68
2023-02-28T22:51:53.733Z,50.67
2023-02-28T22:54:57.429Z,49.63
2023-02-28T22:58:01.688Z,39.97
2023-02-28T23:01:15.913Z,233.55
2023-02-28T23:04:20.354Z,48.15
2023-02-28T23:07:25.034Z,50.22
2023-02-28T23:10:29.486Z,46.55
2023-02-28T23:13:33.992Z,35.83
2023-02-28T23:16:48.590Z,98.80
2023-02-28T23:19:53.001Z,19.02
2023-02-28T23:22:57.285Z,18.20
2023-02-28T23:26:01.844Z,15.07
2023-02-28T23:29:07.119Z,16.65
2023-02-28T23:32:11.579Z,12.52
2023-02-28T23:35:16.752Z,60.00
2023-02-28T23:38:21.309Z,19.98
2023-02-28T23:41:26.481Z,27.42
2023-02-28T23:44:30.907Z,58.53
2023-02-28T23:47:35.371Z,17.83
2023-02-28T23:50:39.940Z,13.48
2023-02-28T23:53:48.643Z,7.47
2023-02-28T23:56:52.661Z,13.27
2023-02-28T23:59:57.693Z,13.63
